sensor_id;sensor_type;location;lat;lon;timestamp;P1;durP1;ratioP1;P2;durP2;ratioP2
48665;SDS011;34452;50.796;4.994;2023-02-15T00:01:17;57.70;;;27.35;;
48665;SDS011;34452;50.796;4.994;2023-02-15T00:03:43;49.80;;;24.42;;
48665;SDS011;34452;50.796;4.994;2023-02-15T00:06:09;52.25;;;25.80;;
48665;SDS011;34452;50.796;4.994;2023-02-15T00:08:35;55.25;;;26.35;;
48665;SDS011;34452;50.796;4.994;2023-02-15T00:14:06;50.25;;;24.42;;
48665;SDS011;34452;50.796;4.994;2023-02-15T00:16:33;47.60;;;23.25;;
48665;SDS011;34452;50.796;4.994;2023-02-15T00:18:59;50.40;;;22.92;;
48665;SDS011;34452;50.796;4.994;2023-02-15T00:21:27;48.08;;;24.30;;
48665;SDS011;34452;50.796;4.994;2023-02-15T00:23:54;56.80;;;27.20;;
48665;SDS011;34452;50.796;4.994;2023-02-15T00:26:20;49.30;;;26.08;;
48665;SDS011;34452;50.796;4.994;2023-02-15T00:28:46;48.63;;;24.35;;
48665;SDS011;34452;50.796;4.994;2023-02-15T00:31:12;38.85;;;20.63;;
48665;SDS011;34452;50.796;4.994;2023-02-15T00:33:38;38.00;;;19.42;;
48665;SDS011;34452;50.796;4.994;2023-02-15T00:38:31;39.70;;;19.88;;
48665;SDS011;34452;50.796;4.994;2023-02-15T00:40:58;43.55;;;19.83;;
48665;SDS011;34452;50.796;4.994;2023-02-15T00:43:26;42.03;;;19.55;;
48665;SDS011;34452;50.796;4.994;2023-02-15T00:45:53;38.03;;;18.95;;
48665;SDS011;34452;50.796;4.994;2023-02-15T00:48:19;43.72;;;19.92;;
48665;SDS011;34452;50.796;4.994;2023-02-15T00:50:46;38.20;;;20.73;;
48665;SDS011;34452;50.796;4.994;2023-02-15T00:53:14;45.58;;;20.20;;
48665;SDS011;34452;50.796;4.994;2023-02-15T00:55:40;42.40;;;20.17;;
48665;SDS011;34452;50.796;4.994;2023-02-15T00:58:06;36.63;;;18.63;;
48665;SDS011;34452;50.796;4.994;2023-02-15T01:00:32;40.70;;;19.40;;
48665;SDS011;34452;50.796;4.994;2023-02-15T01:02:58;38.20;;;19.35;;
48665;SDS011;34452;50.796;4.994;2023-02-15T01:05:24;36.85;;;19.38;;
48665;SDS011;34452;50.796;4.994;2023-02-15T01:07:50;34.67;;;20.17;;
48665;SDS011;34452;50.796;4.994;2023-02-15T01:10:15;38.37;;;20.23;;
48665;SDS011;34452;50.796;4.994;2023-02-15T01:12:41;39.45;;;21.98;;
48665;SDS011;34452;50.796;4.994;2023-02-15T01:15:07;47.53;;;23.13;;
48665;SDS011;34452;50.796;4.994;2023-02-15T01:17:34;32.35;;;16.85;;
48665;SDS011;34452;50.796;4.994;2023-02-15T01:20:00;43.90;;;18.30;;
48665;SDS011;34452;50.796;4.994;2023-02-15T01:22:26;51.35;;;25.05;;
48665;SDS011;34452;50.796;4.994;2023-02-15T01:24:51;49.38;;;22.80;;
48665;SDS011;34452;50.796;4.994;2023-02-15T01:27:17;52.22;;;25.38;;
48665;SDS011;34452;50.796;4.994;2023-02-15T01:29:43;55.47;;;23.20;;
48665;SDS011;34452;50.796;4.994;2023-02-15T01:32:09;48.58;;;23.30;;
48665;SDS011;34452;50.796;4.994;2023-02-15T01:34:35;44.75;;;22.65;;
48665;SDS011;34452;50.796;4.994;2023-02-15T01:37:00;40.28;;;22.25;;
48665;SDS011;34452;50.796;4.994;2023-02-15T01:39:26;46.80;;;22.67;;
48665;SDS011;34452;50.796;4.994;2023-02-15T01:41:52;52.15;;;25.02;;
48665;SDS011;34452;50.796;4.994;2023-02-15T01:47:20;47.15;;;23.92;;
48665;SDS011;34452;50.796;4.994;2023-02-15T01:49:57;41.25;;;21.50;;
48665;SDS011;34452;50.796;4.994;2023-02-15T01:52:42;40.70;;;21.35;;
48665;SDS011;34452;50.796;4.994;2023-02-15T01:55:14;39.60;;;19.67;;
48665;SDS011;34452;50.796;4.994;2023-02-15T01:57:40;47.10;;;22.13;;
48665;SDS011;34452;50.796;4.994;2023-02-15T02:00:07;49.40;;;24.00;;
48665;SDS011;34452;50.796;4.994;2023-02-15T02:02:34;47.97;;;22.30;;
48665;SDS011;34452;50.796;4.994;2023-02-15T02:05:01;43.22;;;22.75;;
48665;SDS011;34452;50.796;4.994;2023-02-15T02:07:32;42.40;;;21.92;;
48665;SDS011;34452;50.796;4.994;2023-02-15T02:10:03;43.67;;;21.95;;
48665;SDS011;34452;50.796;4.994;2023-02-15T02:12:30;40.83;;;21.45;;
48665;SDS011;34452;50.796;4.994;2023-02-15T02:17:36;37.58;;;20.23;;
48665;SDS011;34452;50.796;4.994;2023-02-15T02:20:26;39.10;;;19.33;;
48665;SDS011;34452;50.796;4.994;2023-02-15T02:35:03;36.75;;;19.02;;
48665;SDS011;34452;50.796;4.994;2023-02-15T02:43:27;35.42;;;18.13;;
48665;SDS011;34452;50.796;4.994;2023-02-15T02:46:15;36.88;;;18.08;;
48665;SDS011;34452;50.796;4.994;2023-02-15T02:48:46;40.72;;;19.20;;
48665;SDS011;34452;50.796;4.994;2023-02-15T02:51:14;38.85;;;19.35;;
48665;SDS011;34452;50.796;4.994;2023-02-15T02:53:46;38.58;;;20.35;;
48665;SDS011;34452;50.796;4.994;2023-02-15T02:56:24;36.92;;;18.23;;
48665;SDS011;34452;50.796;4.994;2023-02-15T03:01:43;48.20;;;23.70;;
48665;SDS011;34452;50.796;4.994;2023-02-15T03:04:19;42.88;;;22.13;;
48665;SDS011;34452;50.796;4.994;2023-02-15T03:06:50;42.47;;;21.58;;
48665;SDS011;34452;50.796;4.994;2023-02-15T03:09:25;41.50;;;20.90;;
48665;SDS011;34452;50.796;4.994;2023-02-15T03:12:06;38.28;;;18.95;;
48665;SDS011;34452;50.796;4.994;2023-02-15T03:14:35;32.85;;;18.10;;
48665;SDS011;34452;50.796;4.994;2023-02-15T03:17:02;42.13;;;19.52;;
48665;SDS011;34452;50.796;4.994;2023-02-15T03:19:30;39.92;;;20.92;;
48665;SDS011;34452;50.796;4.994;2023-02-15T03:22:01;34.58;;;17.98;;
48665;SDS011;34452;50.796;4.994;2023-02-15T03:24:36;33.78;;;18.25;;
48665;SDS011;34452;50.796;4.994;2023-02-15T03:27:22;39.15;;;18.15;;
48665;SDS011;34452;50.796;4.994;2023-02-15T03:29:53;38.10;;;20.17;;
48665;SDS011;34452;50.796;4.994;2023-02-15T03:32:21;41.72;;;21.30;;
48665;SDS011;34452;50.796;4.994;2023-02-15T03:34:49;39.10;;;19.40;;
48665;SDS011;34452;50.796;4.994;2023-02-15T03:40:19;42.85;;;21.17;;
48665;SDS011;34452;50.796;4.994;2023-02-15T03:43:12;36.88;;;19.73;;
48665;SDS011;34452;50.796;4.994;2023-02-15T03:45:42;43.45;;;22.20;;
48665;SDS011;34452;50.796;4.994;2023-02-15T03:51:19;46.53;;;21.85;;
48665;SDS011;34452;50.796;4.994;2023-02-15T03:54:00;52.35;;;24.05;;
48665;SDS011;34452;50.796;4.994;2023-02-15T03:56:56;48.50;;;25.27;;
48665;SDS011;34452;50.796;4.994;2023-02-15T03:59:41;55.40;;;26.27;;
48665;SDS011;34452;50.796;4.994;2023-02-15T04:02:26;51.17;;;26.85;;
48665;SDS011;34452;50.796;4.994;2023-02-15T04:05:03;58.45;;;25.98;;
48665;SDS011;34452;50.796;4.994;2023-02-15T04:07:29;64.30;;;27.90;;
48665;SDS011;34452;50.796;4.994;2023-02-15T04:09:54;56.20;;;26.58;;
48665;SDS011;34452;50.796;4.994;2023-02-15T04:12:39;53.70;;;25.70;;
48665;SDS011;34452;50.796;4.994;2023-02-15T04:15:04;55.90;;;26.08;;
48665;SDS011;34452;50.796;4.994;2023-02-15T04:17:49;55.67;;;26.80;;
48665;SDS011;34452;50.796;4.994;2023-02-15T04:20:15;53.67;;;27.23;;
48665;SDS011;34452;50.796;4.994;2023-02-15T04:22:59;61.80;;;26.40;;
48665;SDS011;34452;50.796;4.994;2023-02-15T04:25:43;60.65;;;26.30;;
48665;SDS011;34452;50.796;4.994;2023-02-15T04:28:09;56.30;;;29.00;;
48665;SDS011;34452;50.796;4.994;2023-02-15T04:30:34;51.38;;;26.50;;
48665;SDS011;34452;50.796;4.994;2023-02-15T04:33:00;51.60;;;25.30;;
48665;SDS011;34452;50.796;4.994;2023-02-15T04:35:26;55.83;;;27.92;;
48665;SDS011;34452;50.796;4.994;2023-02-15T04:37:51;56.58;;;26.20;;
48665;SDS011;34452;50.796;4.994;2023-02-15T04:40:17;48.67;;;25.40;;
48665;SDS011;34452;50.796;4.994;2023-02-15T04:42:43;55.33;;;26.33;;
48665;SDS011;34452;50.796;4.994;2023-02-15T04:45:08;51.90;;;26.85;;
48665;SDS011;34452;50.796;4.994;2023-02-15T04:47:34;49.88;;;25.30;;
48665;SDS011;34452;50.796;4.994;2023-02-15T04:50:00;42.72;;;22.42;;
48665;SDS011;34452;50.796;4.994;2023-02-15T04:52:26;46.25;;;22.73;;
48665;SDS011;34452;50.796;4.994;2023-02-15T04:54:51;46.15;;;23.13;;
48665;SDS011;34452;50.796;4.994;2023-02-15T04:57:17;45.63;;;23.23;;
48665;SDS011;34452;50.796;4.994;2023-02-15T04:59:43;46.13;;;22.92;;
48665;SDS011;34452;50.796;4.994;2023-02-15T05:02:08;42.88;;;22.98;;
48665;SDS011;34452;50.796;4.994;2023-02-15T05:04:34;43.55;;;22.42;;
48665;SDS011;34452;50.796;4.994;2023-02-15T05:07:00;45.87;;;23.93;;
48665;SDS011;34452;50.796;4.994;2023-02-15T05:09:25;41.45;;;20.67;;
48665;SDS011;34452;50.796;4.994;2023-02-15T05:11:51;49.05;;;24.08;;
48665;SDS011;34452;50.796;4.994;2023-02-15T05:14:17;45.33;;;23.87;;
48665;SDS011;34452;50.796;4.994;2023-02-15T05:16:43;45.83;;;24.92;;
48665;SDS011;34452;50.796;4.994;2023-02-15T05:19:08;58.00;;;27.58;;
48665;SDS011;34452;50.796;4.994;2023-02-15T05:21:34;48.05;;;23.40;;
48665;SDS011;34452;50.796;4.994;2023-02-15T05:24:00;48.65;;;24.48;;
48665;SDS011;34452;50.796;4.994;2023-02-15T05:26:25;45.35;;;22.33;;
48665;SDS011;34452;50.796;4.994;2023-02-15T05:29:10;44.70;;;22.60;;
48665;SDS011;34452;50.796;4.994;2023-02-15T05:31:36;47.55;;;23.48;;
48665;SDS011;34452;50.796;4.994;2023-02-15T05:34:02;49.10;;;23.63;;
48665;SDS011;34452;50.796;4.994;2023-02-15T05:36:28;45.97;;;24.65;;
48665;SDS011;34452;50.796;4.994;2023-02-15T05:38:54;48.38;;;22.35;;
48665;SDS011;34452;50.796;4.994;2023-02-15T05:41:20;55.95;;;25.75;;
48665;SDS011;34452;50.796;4.994;2023-02-15T05:43:46;54.75;;;25.60;;
48665;SDS011;34452;50.796;4.994;2023-02-15T05:46:12;49.60;;;24.55;;
48665;SDS011;34452;50.796;4.994;2023-02-15T05:48:38;58.20;;;26.70;;
48665;SDS011;34452;50.796;4.994;2023-02-15T05:51:05;48.15;;;25.38;;
48665;SDS011;34452;50.796;4.994;2023-02-15T05:53:33;60.70;;;26.52;;
48665;SDS011;34452;50.796;4.994;2023-02-15T05:56:01;51.17;;;24.90;;
48665;SDS011;34452;50.796;4.994;2023-02-15T05:58:29;44.42;;;23.50;;
48665;SDS011;34452;50.796;4.994;2023-02-15T06:00:57;52.05;;;22.15;;
48665;SDS011;34452;50.796;4.994;2023-02-15T06:03:23;49.83;;;24.60;;
48665;SDS011;34452;50.796;4.994;2023-02-15T06:05:50;51.65;;;22.98;;
48665;SDS011;34452;50.796;4.994;2023-02-15T06:08:17;51.88;;;24.02;;
48665;SDS011;34452;50.796;4.994;2023-02-15T06:10:45;64.07;;;26.63;;
48665;SDS011;34452;50.796;4.994;2023-02-15T06:13:11;53.50;;;25.27;;
48665;SDS011;34452;50.796;4.994;2023-02-15T06:15:37;53.53;;;26.35;;
48665;SDS011;34452;50.796;4.994;2023-02-15T06:18:02;53.97;;;24.65;;
48665;SDS011;34452;50.796;4.994;2023-02-15T06:20:28;56.80;;;27.73;;
48665;SDS011;34452;50.796;4.994;2023-02-15T06:22:54;65.35;;;26.45;;
48665;SDS011;34452;50.796;4.994;2023-02-15T06:25:19;57.60;;;25.77;;
48665;SDS011;34452;50.796;4.994;2023-02-15T06:27:45;53.40;;;24.25;;
48665;SDS011;34452;50.796;4.994;2023-02-15T06:30:11;57.00;;;26.58;;
48665;SDS011;34452;50.796;4.994;2023-02-15T06:32:37;52.85;;;25.95;;
48665;SDS011;34452;50.796;4.994;2023-02-15T06:35:03;55.03;;;25.20;;
48665;SDS011;34452;50.796;4.994;2023-02-15T06:37:29;53.83;;;23.60;;
48665;SDS011;34452;50.796;4.994;2023-02-15T06:39:54;50.90;;;22.98;;
48665;SDS011;34452;50.796;4.994;2023-02-15T06:42:21;58.05;;;24.95;;
48665;SDS011;34452;50.796;4.994;2023-02-15T06:44:47;55.85;;;26.33;;
48665;SDS011;34452;50.796;4.994;2023-02-15T06:47:13;40.10;;;21.92;;
48665;SDS011;34452;50.796;4.994;2023-02-15T06:49:38;43.47;;;22.73;;
48665;SDS011;34452;50.796;4.994;2023-02-15T06:52:04;43.88;;;22.48;;
48665;SDS011;34452;50.796;4.994;2023-02-15T06:54:30;43.67;;;22.20;;
48665;SDS011;34452;50.796;4.994;2023-02-15T06:56:56;48.47;;;21.30;;
48665;SDS011;34452;50.796;4.994;2023-02-15T06:59:21;39.53;;;21.45;;
48665;SDS011;34452;50.796;4.994;2023-02-15T07:01:47;48.72;;;23.20;;
48665;SDS011;34452;50.796;4.994;2023-02-15T07:04:14;42.42;;;21.27;;
48665;SDS011;34452;50.796;4.994;2023-02-15T07:06:40;58.00;;;22.67;;
48665;SDS011;34452;50.796;4.994;2023-02-15T07:09:05;48.05;;;23.35;;
48665;SDS011;34452;50.796;4.994;2023-02-15T07:11:31;45.75;;;22.90;;
48665;SDS011;34452;50.796;4.994;2023-02-15T07:14:16;41.05;;;20.73;;
48665;SDS011;34452;50.796;4.994;2023-02-15T07:16:41;40.08;;;21.38;;
48665;SDS011;34452;50.796;4.994;2023-02-15T07:19:07;40.92;;;21.60;;
48665;SDS011;34452;50.796;4.994;2023-02-15T07:21:34;46.53;;;22.00;;
48665;SDS011;34452;50.796;4.994;2023-02-15T07:24:00;47.03;;;23.23;;
48665;SDS011;34452;50.796;4.994;2023-02-15T07:26:26;41.50;;;22.05;;
48665;SDS011;34452;50.796;4.994;2023-02-15T07:28:52;48.25;;;20.38;;
48665;SDS011;34452;50.796;4.994;2023-02-15T07:31:18;44.65;;;22.60;;
48665;SDS011;34452;50.796;4.994;2023-02-15T07:33:43;47.10;;;23.98;;
48665;SDS011;34452;50.796;4.994;2023-02-15T07:36:09;51.22;;;24.40;;
48665;SDS011;34452;50.796;4.994;2023-02-15T07:38:37;42.92;;;23.83;;
48665;SDS011;34452;50.796;4.994;2023-02-15T07:41:06;59.55;;;27.75;;
48665;SDS011;34452;50.796;4.994;2023-02-15T07:43:34;62.75;;;28.73;;
48665;SDS011;34452;50.796;4.994;2023-02-15T07:46:01;59.95;;;25.50;;
48665;SDS011;34452;50.796;4.994;2023-02-15T07:48:29;56.10;;;27.15;;
48665;SDS011;34452;50.796;4.994;2023-02-15T07:50:58;58.70;;;27.90;;
48665;SDS011;34452;50.796;4.994;2023-02-15T07:53:24;64.32;;;28.67;;
48665;SDS011;34452;50.796;4.994;2023-02-15T07:55:50;57.63;;;29.63;;
48665;SDS011;34452;50.796;4.994;2023-02-15T07:58:17;56.05;;;28.63;;
48665;SDS011;34452;50.796;4.994;2023-02-15T08:00:43;63.97;;;29.23;;
48665;SDS011;34452;50.796;4.994;2023-02-15T08:03:27;62.28;;;29.38;;
48665;SDS011;34452;50.796;4.994;2023-02-15T08:08:21;62.42;;;28.52;;
48665;SDS011;34452;50.796;4.994;2023-02-15T08:11:07;58.38;;;27.73;;
48665;SDS011;34452;50.796;4.994;2023-02-15T08:16:45;63.22;;;27.63;;
48665;SDS011;34452;50.796;4.994;2023-02-15T08:19:14;55.35;;;26.88;;
48665;SDS011;34452;50.796;4.994;2023-02-15T08:22:00;66.65;;;28.40;;
48665;SDS011;34452;50.796;4.994;2023-02-15T08:24:30;52.38;;;27.77;;
48665;SDS011;34452;50.796;4.994;2023-02-15T08:26:57;56.75;;;27.52;;
48665;SDS011;34452;50.796;4.994;2023-02-15T08:29:25;57.28;;;27.52;;
48665;SDS011;34452;50.796;4.994;2023-02-15T08:31:52;58.25;;;27.65;;
48665;SDS011;34452;50.796;4.994;2023-02-15T08:34:20;52.40;;;25.67;;
48665;SDS011;34452;50.796;4.994;2023-02-15T08:39:12;52.70;;;27.38;;
48665;SDS011;34452;50.796;4.994;2023-02-15T08:41:39;55.55;;;28.90;;
48665;SDS011;34452;50.796;4.994;2023-02-15T08:44:08;51.67;;;26.05;;
48665;SDS011;34452;50.796;4.994;2023-02-15T08:46:36;57.67;;;26.25;;
48665;SDS011;34452;50.796;4.994;2023-02-15T08:49:03;66.10;;;28.35;;
48665;SDS011;34452;50.796;4.994;2023-02-15T08:51:31;52.83;;;26.63;;
48665;SDS011;34452;50.796;4.994;2023-02-15T08:54:02;49.55;;;26.30;;
48665;SDS011;34452;50.796;4.994;2023-02-15T08:56:30;61.22;;;28.60;;
48665;SDS011;34452;50.796;4.994;2023-02-15T08:58:58;60.15;;;25.85;;
48665;SDS011;34452;50.796;4.994;2023-02-15T09:01:25;53.78;;;26.05;;
48665;SDS011;34452;50.796;4.994;2023-02-15T09:03:55;51.92;;;24.83;;
48665;SDS011;34452;50.796;4.994;2023-02-15T09:06:23;50.30;;;25.63;;
48665;SDS011;34452;50.796;4.994;2023-02-15T09:08:50;51.30;;;25.73;;
48665;SDS011;34452;50.796;4.994;2023-02-15T09:11:17;51.83;;;26.92;;
48665;SDS011;34452;50.796;4.994;2023-02-15T09:13:57;47.63;;;25.05;;
48665;SDS011;34452;50.796;4.994;2023-02-15T09:16:27;52.25;;;25.83;;
48665;SDS011;34452;50.796;4.994;2023-02-15T09:18:54;44.65;;;24.75;;
48665;SDS011;34452;50.796;4.994;2023-02-15T09:21:22;49.13;;;23.77;;
48665;SDS011;34452;50.796;4.994;2023-02-15T09:23:51;44.97;;;22.95;;
48665;SDS011;34452;50.796;4.994;2023-02-15T09:26:21;44.47;;;22.38;;
48665;SDS011;34452;50.796;4.994;2023-02-15T09:28:48;45.55;;;21.88;;
48665;SDS011;34452;50.796;4.994;2023-02-15T09:31:18;44.60;;;22.58;;
48665;SDS011;34452;50.796;4.994;2023-02-15T09:33:46;42.85;;;21.70;;
48665;SDS011;34452;50.796;4.994;2023-02-15T09:36:14;41.47;;;20.08;;
48665;SDS011;34452;50.796;4.994;2023-02-15T09:38:42;39.40;;;19.20;;
48665;SDS011;34452;50.796;4.994;2023-02-15T09:55:45;41.20;;;19.95;;
48665;SDS011;34452;50.796;4.994;2023-02-15T09:58:15;36.58;;;19.08;;
48665;SDS011;34452;50.796;4.994;2023-02-15T10:03:14;36.25;;;18.75;;
48665;SDS011;34452;50.796;4.994;2023-02-15T10:11:39;32.70;;;18.05;;
48665;SDS011;34452;50.796;4.994;2023-02-15T10:19:54;32.92;;;17.00;;
48665;SDS011;34452;50.796;4.994;2023-02-15T10:22:56;39.22;;;18.33;;
48665;SDS011;34452;50.796;4.994;2023-02-15T10:28:06;28.58;;;16.40;;
48665;SDS011;34452;50.796;4.994;2023-02-15T10:30:52;29.40;;;16.75;;
48665;SDS011;34452;50.796;4.994;2023-02-15T10:33:30;35.05;;;16.13;;
48665;SDS011;34452;50.796;4.994;2023-02-15T10:36:24;28.55;;;15.50;;
48665;SDS011;34452;50.796;4.994;2023-02-15T10:42:03;31.23;;;15.57;;
48665;SDS011;34452;50.796;4.994;2023-02-15T10:47:41;35.92;;;16.08;;
48665;SDS011;34452;50.796;4.994;2023-02-15T10:53:34;31.55;;;15.90;;
48665;SDS011;34452;50.796;4.994;2023-02-15T10:56:19;30.13;;;15.23;;
48665;SDS011;34452;50.796;4.994;2023-02-15T11:07:54;32.35;;;15.45;;
48665;SDS011;34452;50.796;4.994;2023-02-15T11:13:14;37.58;;;16.52;;
48665;SDS011;34452;50.796;4.994;2023-02-15T11:15:53;33.78;;;16.15;;
48665;SDS011;34452;50.796;4.994;2023-02-15T11:21:30;36.08;;;15.77;;
48665;SDS011;34452;50.796;4.994;2023-02-15T11:24:07;29.15;;;15.07;;
48665;SDS011;34452;50.796;4.994;2023-02-15T11:26:41;32.20;;;16.45;;
48665;SDS011;34452;50.796;4.994;2023-02-15T11:37:18;29.45;;;16.15;;
48665;SDS011;34452;50.796;4.994;2023-02-15T11:39:50;38.53;;;17.35;;
48665;SDS011;34452;50.796;4.994;2023-02-15T11:42:20;33.50;;;17.00;;
48665;SDS011;34452;50.796;4.994;2023-02-15T11:47:42;34.00;;;18.25;;
48665;SDS011;34452;50.796;4.994;2023-02-15T11:55:39;33.35;;;17.30;;
48665;SDS011;34452;50.796;4.994;2023-02-15T12:00:54;32.53;;;17.10;;
48665;SDS011;34452;50.796;4.994;2023-02-15T12:06:33;34.20;;;17.15;;
48665;SDS011;34452;50.796;4.994;2023-02-15T12:09:17;30.95;;;16.58;;
48665;SDS011;34452;50.796;4.994;2023-02-15T12:14:50;33.47;;;17.48;;
48665;SDS011;34452;50.796;4.994;2023-02-15T12:17:20;33.85;;;18.08;;
48665;SDS011;34452;50.796;4.994;2023-02-15T12:19:49;29.75;;;16.33;;
48665;SDS011;34452;50.796;4.994;2023-02-15T12:25:04;34.10;;;17.77;;
48665;SDS011;34452;50.796;4.994;2023-02-15T12:27:58;38.15;;;17.83;;
48665;SDS011;34452;50.796;4.994;2023-02-15T12:30:27;40.90;;;18.02;;
48665;SDS011;34452;50.796;4.994;2023-02-15T12:36:00;34.65;;;18.17;;
48665;SDS011;34452;50.796;4.994;2023-02-15T12:38:40;36.03;;;17.92;;
48665;SDS011;34452;50.796;4.994;2023-02-15T12:44:03;39.58;;;17.73;;
48665;SDS011;34452;50.796;4.994;2023-02-15T12:46:32;42.35;;;18.48;;
48665;SDS011;34452;50.796;4.994;2023-02-15T12:56:55;35.60;;;18.13;;
48665;SDS011;34452;50.796;4.994;2023-02-15T12:59:22;37.60;;;18.63;;
48665;SDS011;34452;50.796;4.994;2023-02-15T13:01:48;33.50;;;17.67;;
48665;SDS011;34452;50.796;4.994;2023-02-15T13:04:27;31.08;;;17.77;;
48665;SDS011;34452;50.796;4.994;2023-02-15T13:06:56;42.92;;;19.50;;
48665;SDS011;34452;50.796;4.994;2023-02-15T13:09:26;35.45;;;19.23;;
48665;SDS011;34452;50.796;4.994;2023-02-15T13:15:00;36.85;;;19.23;;
48665;SDS011;34452;50.796;4.994;2023-02-15T13:17:29;31.33;;;17.23;;
48665;SDS011;34452;50.796;4.994;2023-02-15T13:19:59;37.47;;;19.45;;
48665;SDS011;34452;50.796;4.994;2023-02-15T13:25:14;34.65;;;19.25;;
48665;SDS011;34452;50.796;4.994;2023-02-15T13:27:44;37.47;;;20.00;;
48665;SDS011;34452;50.796;4.994;2023-02-15T13:30:16;37.60;;;20.48;;
48665;SDS011;34452;50.796;4.994;2023-02-15T13:33:03;41.95;;;19.33;;
48665;SDS011;34452;50.796;4.994;2023-02-15T13:35:43;35.03;;;20.10;;
48665;SDS011;34452;50.796;4.994;2023-02-15T13:41:26;33.45;;;18.50;;
48665;SDS011;34452;50.796;4.994;2023-02-15T13:52:47;35.88;;;19.15;;
48665;SDS011;34452;50.796;4.994;2023-02-15T13:55:29;38.92;;;19.73;;
48665;SDS011;34452;50.796;4.994;2023-02-15T14:01:13;38.33;;;19.65;;
48665;SDS011;34452;50.796;4.994;2023-02-15T14:10:12;33.70;;;20.50;;
48665;SDS011;34452;50.796;4.994;2023-02-15T14:12:51;41.15;;;20.27;;
48665;SDS011;34452;50.796;4.994;2023-02-15T14:15:49;41.22;;;22.15;;
48665;SDS011;34452;50.796;4.994;2023-02-15T14:18:40;34.58;;;19.40;;
48665;SDS011;34452;50.796;4.994;2023-02-15T14:26:38;36.97;;;20.60;;
48665;SDS011;34452;50.796;4.994;2023-02-15T14:32:00;38.92;;;19.77;;
48665;SDS011;34452;50.796;4.994;2023-02-15T14:43:30;36.72;;;20.65;;
48665;SDS011;34452;50.796;4.994;2023-02-15T14:52:01;37.65;;;19.80;;
48665;SDS011;34452;50.796;4.994;2023-02-15T14:59:43;39.10;;;21.33;;
48665;SDS011;34452;50.796;4.994;2023-02-15T15:02:16;45.92;;;23.30;;
48665;SDS011;34452;50.796;4.994;2023-02-15T15:07:26;37.00;;;21.77;;
48665;SDS011;34452;50.796;4.994;2023-02-15T15:10:03;41.53;;;21.20;;
48665;SDS011;34452;50.796;4.994;2023-02-15T15:12:47;36.90;;;20.77;;
48665;SDS011;34452;50.796;4.994;2023-02-15T15:15:32;40.70;;;20.40;;
48665;SDS011;34452;50.796;4.994;2023-02-15T15:18:10;40.67;;;20.67;;
48665;SDS011;34452;50.796;4.994;2023-02-15T15:20:55;38.20;;;19.67;;
48665;SDS011;34452;50.796;4.994;2023-02-15T15:25:48;42.67;;;21.73;;
48665;SDS011;34452;50.796;4.994;2023-02-15T15:45:27;37.90;;;19.50;;
48665;SDS011;34452;50.796;4.994;2023-02-15T15:48:15;34.58;;;19.67;;
48665;SDS011;34452;50.796;4.994;2023-02-15T15:51:05;40.53;;;20.27;;
48665;SDS011;34452;50.796;4.994;2023-02-15T15:58:48;41.97;;;19.58;;
48665;SDS011;34452;50.796;4.994;2023-02-15T16:01:23;37.67;;;19.95;;
48665;SDS011;34452;50.796;4.994;2023-02-15T16:03:53;37.88;;;21.23;;
48665;SDS011;34452;50.796;4.994;2023-02-15T16:14:39;42.90;;;20.50;;
48665;SDS011;34452;50.796;4.994;2023-02-15T16:17:08;33.90;;;19.45;;
48665;SDS011;34452;50.796;4.994;2023-02-15T16:19:42;45.08;;;21.77;;
48665;SDS011;34452;50.796;4.994;2023-02-15T16:30:16;49.55;;;21.90;;
48665;SDS011;34452;50.796;4.994;2023-02-15T16:33:10;44.88;;;22.20;;
48665;SDS011;34452;50.796;4.994;2023-02-15T16:35:41;45.05;;;22.77;;
48665;SDS011;34452;50.796;4.994;2023-02-15T16:43:52;68.35;;;32.58;;
48665;SDS011;34452;50.796;4.994;2023-02-15T16:49:05;43.05;;;22.35;;
48665;SDS011;34452;50.796;4.994;2023-02-15T16:51:39;42.40;;;22.05;;
48665;SDS011;34452;50.796;4.994;2023-02-15T16:54:13;42.05;;;22.98;;
48665;SDS011;34452;50.796;4.994;2023-02-15T16:56:42;45.72;;;22.15;;
48665;SDS011;34452;50.796;4.994;2023-02-15T16:59:16;41.35;;;22.58;;
48665;SDS011;34452;50.796;4.994;2023-02-15T17:01:56;44.33;;;22.30;;
48665;SDS011;34452;50.796;4.994;2023-02-15T17:09:30;45.97;;;22.17;;
48665;SDS011;34452;50.796;4.994;2023-02-15T17:11:56;39.95;;;21.67;;
48665;SDS011;34452;50.796;4.994;2023-02-15T17:19:50;43.50;;;22.48;;
48665;SDS011;34452;50.796;4.994;2023-02-15T17:22:20;41.42;;;21.58;;
48665;SDS011;34452;50.796;4.994;2023-02-15T17:24:50;41.92;;;22.58;;
48665;SDS011;34452;50.796;4.994;2023-02-15T17:27:25;45.08;;;23.10;;
48665;SDS011;34452;50.796;4.994;2023-02-15T17:29:56;42.30;;;22.10;;
48665;SDS011;34452;50.796;4.994;2023-02-15T17:32:25;42.00;;;22.70;;
48665;SDS011;34452;50.796;4.994;2023-02-15T17:42:43;50.30;;;23.33;;
48665;SDS011;34452;50.796;4.994;2023-02-15T17:45:09;39.73;;;22.43;;
48665;SDS011;34452;50.796;4.994;2023-02-15T17:47:35;46.27;;;24.20;;
48665;SDS011;34452;50.796;4.994;2023-02-15T17:50:02;47.38;;;23.88;;
48665;SDS011;34452;50.796;4.994;2023-02-15T17:52:29;52.17;;;24.10;;
48665;SDS011;34452;50.796;4.994;2023-02-15T17:54:58;45.40;;;23.20;;
48665;SDS011;34452;50.796;4.994;2023-02-15T17:57:48;42.15;;;23.55;;
48665;SDS011;34452;50.796;4.994;2023-02-15T18:00:14;51.67;;;22.97;;
48665;SDS011;34452;50.796;4.994;2023-02-15T18:02:59;49.60;;;25.08;;
48665;SDS011;34452;50.796;4.994;2023-02-15T18:05:43;43.47;;;23.92;;
48665;SDS011;34452;50.796;4.994;2023-02-15T18:08:27;54.55;;;25.23;;
48665;SDS011;34452;50.796;4.994;2023-02-15T18:11:11;47.42;;;26.30;;
48665;SDS011;34452;50.796;4.994;2023-02-15T18:13:55;47.70;;;23.88;;
48665;SDS011;34452;50.796;4.994;2023-02-15T18:16:25;58.35;;;26.42;;
48665;SDS011;34452;50.796;4.994;2023-02-15T18:18:54;44.05;;;25.33;;
48665;SDS011;34452;50.796;4.994;2023-02-15T18:21:22;52.33;;;27.80;;
48665;SDS011;34452;50.796;4.994;2023-02-15T18:23:48;54.38;;;26.35;;
48665;SDS011;34452;50.796;4.994;2023-02-15T18:26:16;57.42;;;26.70;;
48665;SDS011;34452;50.796;4.994;2023-02-15T18:28:44;59.38;;;28.08;;
48665;SDS011;34452;50.796;4.994;2023-02-15T18:31:10;52.03;;;28.17;;
48665;SDS011;34452;50.796;4.994;2023-02-15T18:33:38;47.10;;;26.10;;
48665;SDS011;34452;50.796;4.994;2023-02-15T18:36:25;51.42;;;26.95;;
48665;SDS011;34452;50.796;4.994;2023-02-15T18:38:53;60.50;;;26.63;;
48665;SDS011;34452;50.796;4.994;2023-02-15T18:41:20;48.53;;;25.60;;
48665;SDS011;34452;50.796;4.994;2023-02-15T18:43:47;51.85;;;28.05;;
48665;SDS011;34452;50.796;4.994;2023-02-15T18:46:13;58.20;;;29.00;;
48665;SDS011;34452;50.796;4.994;2023-02-15T18:48:40;46.65;;;26.70;;
48665;SDS011;34452;50.796;4.994;2023-02-15T18:53:50;57.33;;;30.13;;
48665;SDS011;34452;50.796;4.994;2023-02-15T18:56:18;58.13;;;30.73;;
48665;SDS011;34452;50.796;4.994;2023-02-15T18:58:45;53.28;;;28.80;;
48665;SDS011;34452;50.796;4.994;2023-02-15T19:01:13;50.80;;;26.52;;
48665;SDS011;34452;50.796;4.994;2023-02-15T19:03:42;54.90;;;27.92;;
48665;SDS011;34452;50.796;4.994;2023-02-15T19:06:10;49.83;;;26.42;;
48665;SDS011;34452;50.796;4.994;2023-02-15T19:08:37;50.28;;;28.60;;
48665;SDS011;34452;50.796;4.994;2023-02-15T19:13:29;57.00;;;29.13;;
48665;SDS011;34452;50.796;4.994;2023-02-15T19:15:55;44.63;;;26.37;;